Actualité

 

LogoChallengeNewsletter

Challenge du Pays Boulonnais
 
La cagnotte "Chronopale 2020" à partager entre tous les coureurs classés sur les 9 épreuves sera de 850€
Date des épreuves 2020
  1.  09/02/20 Les 6 Miles de Pont de Briques
  2.  08/03/20 Semi Marathon de la Terre des 2 Caps à Ferques (Sauf pour les cadets)
  3.  01/05/20 La Ronde du Fort de l'Heurt à Le Portel 10 Km (nature plage et falaise)
  4.  07/06/20 La Win Run à Wimereux 10 Km
  5.  28/06/20 Boulogne le 10 Km
  6.  11/10/20 Les Foulées de la Santé à Saint Martin 10 Km   
  7.  15/11/20 Les Foulées Outreloises à Outreau  10 Km            
  8.  22/11/20 Les Foulées de la Sainte Catherine à Menneville 10 Km *
  9.  05/12/20 Rues & Run Desvroises 10 Km

* A cette heure les Foulées de la Sainte Catherine de Menneville ne sont pas assurées d'avoir lieu (décision après les éléctions municipales) 

 

Nous contacter

Chronopale
59 Rue Léonce TOBO
62200 Boulogne sur mer
06 60 17 22 13
contact@chronopale.fr
www.chronopale.fr

 

15Km

15 Km Trail des Mille Monts du 05/05/19 (Réelle 15)
Rang Dossard Nom Prénom Temps Cat Rang Cat Ecart Ecart Cat Club Vitesse Km/h Temps au Km
1 1313 RENARD Emmanuel 00:58:02 SEM 1 00:00:00 00:00:00 TRIATHLON CLUB MONTREUILLOIS 15,508 03:52
2 1185 MOWAT Etienne 00:58:36 JUM 1 00:00:34 00:00:00 L.M.A LILLE UC ATHLéTISME 15,358 03:54
3 886 LAGACHE Teddy 01:00:47 SEM 2 00:02:45 00:02:45 - 14,807 04:03
4 1265 FLIPO Gregoire 01:00:47 V2M 1 00:02:45 00:00:00 STADE LONGUENESSOIS 14,807 04:03
5 1337 LEHON PIERRE 01:01:01 SEM 3 00:02:59 00:02:59 ENTENTE MARITIME ATHL. 14,750 04:04
6 1122 DUCROCQ Marc antoine 01:01:11 SEM 4 00:03:09 00:03:09 BOULOGNE AC 14,710 04:05
7 1306 BREQUEVILLE Samuel 01:02:09 V1M 1 00:04:07 00:00:00 TOUQUET TRAIL NATURE 14,481 04:09
8 787 DELABASSERUE Bastien 01:02:12 SEM 5 00:04:10 00:04:10 - 14,469 04:09
9 731 BIZE Remi 01:02:23 V1M 2 00:04:21 00:00:14 - 14,427 04:10
10 1311 BARTHELEMY CHRISTIAN 01:02:29 V2M 2 00:04:27 00:01:42 CAP OPALE 14,404 04:10
11 804 DIACRE Nicolas 01:02:58 SEM 6 00:04:56 00:04:56 - 14,293 04:12
12 879 JOLY Christopher 01:03:40 SEM 7 00:05:38 00:05:38 - 14,136 04:15
13 1211 FOURNIER Clément 01:04:17 SEM 8 00:06:15 00:06:15 LOUCH'ANGELES 14,001 04:17
14 1094 BERNARD Stephane 01:04:30 SEM 9 00:06:28 00:06:28 AS MARCK 13,953 04:18
15 1248 FAYT Jules 01:04:31 JUM 2 00:06:29 00:05:55 RACING CLUB ARRAS TRIATHLON 13,950 04:18
16 1305 BREQUEVILLE Jonathan 01:04:52 V1M 3 00:06:50 00:02:43 TOUQUET TRAIL NATURE 13,875 04:19
17 773 CUCHEVAL Gontran 01:05:35 SEM 10 00:07:33 00:07:33 - 13,723 04:22
18 1088 OSSTYN Patrice 01:05:51 V1M 4 00:07:49 00:03:42 AIRSPIRE 13,667 04:23
19 1310 RAMET Rudy 01:05:52 V1M 5 00:07:50 00:03:43 TOUQUET TRAIL NATURE 13,664 04:23
20 1136 MIQUEL David 01:06:02 V2M 3 00:08:00 00:05:15 CALAIS TERRE D'OPALE TRAIL 13,629 04:24
21 1319 SINIVASSIN Jean hugues 01:06:16 V2M 4 00:08:14 00:05:29 UNIRUN 13,581 04:25
22 1307 COLLIER Guillaume 01:06:27 SEM 11 00:08:25 00:08:25 TOUQUET TRAIL NATURE 13,544 04:26
23 1266 LELEU Amory 01:06:29 SEM 12 00:08:27 00:08:27 STADE LONGUENESSOIS 13,537 04:26
24 984 QUEVAL Jean jacques 01:06:53 V3M 1 00:08:51 00:00:00 - 13,456 04:28
25 1246 LECOFFRE Maxime 01:07:10 SEM 13 00:09:08 00:09:08 PICON AC 13,400 04:29
26 527 PRUDHOMME GEORGES 01:07:11 V2M 5 00:09:09 00:06:24 COURIR DANS LE LUMBROIS 13,396 04:29
27 1164 TROCME Julien 01:07:45 V1M 6 00:09:43 00:05:36 DéPARTEMENT DU PAS-DE-CALAIS 13,284 04:31
28 741 BULTEL Léo 01:08:17 ESM 1 00:10:15 00:00:00 - 13,180 04:33
29 1207 DELPLACE Alexandre 01:08:17 V1M 7 00:10:15 00:06:08 LONGUENESSE  NATURE AVENTURE 13,180 04:33
30 1029 TISSERAND Thibaut 01:08:38 SEM 14 00:10:36 00:10:36 - 13,113 04:35
31 1224 DENIS Gwendoline 01:08:43 SEF 1 00:10:41 00:00:00 PATRIOTE CROSS DE GUINES 13,097 04:35
32 1172 ROZIERES Remi 01:08:52 SEM 15 00:10:50 00:10:50 ETAPLES 13,069 04:35
33 1109 LESCIEUX Christian 01:08:52 V1M 8 00:10:50 00:06:43 ATSCAF DUNKERQUE 13,069 04:35
34 1184 LIBERT Olivier 01:08:55 SEM 16 00:10:53 00:10:53 L.M.A LILLE UC ATHéTISME 13,059 04:36
35 1083 B'AHEU Romain 01:09:14 SEM 17 00:11:12 00:11:12 AC OUTREAU 13,000 04:37
36 1196 DESCAMPS Emmanuel 01:09:29 V1M 9 00:11:27 00:07:20 LES TYRANNOSAURES 12,953 04:38
37 780 DEBOUDT Mickael 01:09:34 V1M 10 00:11:32 00:07:25 - 12,937 04:38
38 766 COUPIN Franck 01:09:39 SEM 18 00:11:37 00:11:37 - 12,922 04:39
39 1027 THERET Mickael 01:09:43 V1M 11 00:11:41 00:07:34 - 12,909 04:39
40 1302 DUBOILLE Yohann 01:09:45 V1M 12 00:11:43 00:07:36 TEAM TRAIL YOYO 12,903 04:39
41 1133 BRENET Rudy 01:09:49 V1M 13 00:11:47 00:07:40 CALAIS TERRE D'OPALE TRAIL 12,891 04:39
42 863 HERLEM Gilles 01:09:53 SEM 19 00:11:51 00:11:51 - 12,879 04:40
43 1339 HODIQUE Herve 01:10:30 V1M 14 00:12:28 00:08:21 TEAM TRAIL 62 12,766 04:42
44 1118 CORDESSE Antoine 01:10:33 ESM 2 00:12:31 00:02:16 BERCK OPAL SUD TRIATHLON 12,757 04:42
45 735 BOURGAIN Guillaume 01:10:34 V1M 15 00:12:32 00:08:25 - 12,754 04:42
46 1243 MAZURIER Alain 01:10:53 V2M 6 00:12:51 00:10:06 PATRIOTE GUINES 12,697 04:44
47 1070 ZIEGLER Barnabé 01:11:04 ESM 3 00:13:02 00:02:47 - 12,664 04:44
48 1102 SCHUPPE Clotaire 01:11:07 V2M 7 00:13:05 00:10:20 AS MARCK 12,655 04:44
49 1119 MIEZE Samuel 01:11:20 V1M 16 00:13:18 00:09:11 BLARINGHEM TRAIL 12,617 04:45
50 1227 BOIS Stephane 01:11:23 V2M 8 00:13:21 00:10:36 PATRIOTE CROSS GUINES 12,608 04:46
51 749 CARPENTIER Mathieu 01:11:33 V1M 17 00:13:31 00:09:24 - 12,579 04:46
52 992 RENOUX Jerome 01:11:47 V1M 18 00:13:45 00:09:38 - 12,538 04:47
53 962 PAILLARD Maxime 01:12:05 SEM 20 00:14:03 00:14:03 - 12,486 04:48
54 898 LAURIER Alexandre 01:12:06 SEM 21 00:14:04 00:14:04 - 12,483 04:48
55 851 GUERIN Victor 01:12:12 SEM 22 00:14:10 00:14:10 - 12,465 04:49
56 1327 TILLIER Ludovic 01:12:15 V1M 19 00:14:13 00:10:06 WIMEREUX RUNNING CLUB (WRC) 12,457 04:49
57 891 LANNOY Jean-yves 01:12:29 V3M 2 00:14:27 00:05:36 - 12,417 04:50
58 1308 HOUPIN Denis 01:12:36 V1M 20 00:14:34 00:10:27 TOUQUET TRAIL NATURE 12,397 04:50
59 774 CUVELIER Bastien 01:12:39 SEM 23 00:14:37 00:14:37 - 12,388 04:51
60 772 CROTTIER Benoit 01:12:39 SEM 24 00:14:37 00:14:37 - 12,388 04:51
61 1233 DECROCK Mathéo 01:12:59 CAM 1 00:14:57 00:00:00 PATRIOTE GUINES 12,332 04:52
62 979 POUPART Nicolas 01:13:01 SEM 25 00:14:59 00:14:59 - 12,326 04:52
63 1225 FASQUEL Florian 01:13:12 JUM 3 00:15:10 00:14:36 PATRIOTE CROSS DE GUINES 12,295 04:53
64 874 HURTRELLE Jean-françois 01:13:22 SEM 26 00:15:20 00:15:20 - 12,267 04:53
65 926 LOUVET Christophe 01:13:29 V2M 9 00:15:27 00:12:42 - 12,248 04:54
66 1125 REGNIER Laurent 01:13:47 SEM 27 00:15:45 00:15:45 BOURTHES RUNNING 12,198 04:55
67 1036 TRUPIN Gregory 01:13:48 SEM 28 00:15:46 00:15:46 - 12,195 04:55
68 822 FAIT Jonathan 01:13:52 SEM 29 00:15:50 00:15:50 - 12,184 04:55
69 943 MASSET Christophe 01:13:54 V2M 10 00:15:52 00:13:07 - 12,179 04:56
70 722 BEGUE Yannick 01:14:06 V1M 21 00:16:04 00:11:57 - 12,146 04:56
71 1214 HOLLEBEQUE Steve 01:14:25 V1M 22 00:16:23 00:12:16 LYS CALAIS TRIATHLON 12,094 04:58
72 1097 CRETON Raphael 01:14:42 V1M 23 00:16:40 00:12:33 AS MARCK 12,048 04:59
73 1105 HANNOTEL Nathalie 01:14:51 V1F 1 00:16:49 00:00:00 ASUD 12,024 04:59
74 1222 LEROY Vincent 01:14:51 SEM 30 00:16:49 00:16:49 OSAIRE ATHLéTISME 12,024 04:59
75 740 BROSSET Franck 01:14:59 V2M 11 00:16:57 00:14:12 - 12,003 05:00
76 897 LASSALLE Michelle 01:15:04 V1M 24 00:17:02 00:12:55 - 11,989 05:00
77 1209 HURTREL Clemence 01:15:15 SEF 2 00:17:13 00:06:32 LONGUENESSE NATURE AVENTURE 11,960 05:01
78 867 HOCHART Anthony 01:15:16 CAM 2 00:17:14 00:02:17 - 11,957 05:01
79 938 MARGIOVANNI Mario 01:15:23 SEM 31 00:17:21 00:17:21 - 11,939 05:02
80 988 RAULT Sebastien 01:15:30 V1M 25 00:17:28 00:13:21 - 11,921 05:02
81 1132 DEWEZ Julien 01:15:34 SEM 32 00:17:32 00:17:32 CALAIS TERRE D?OPALE TRAIL 11,910 05:02
82 980 PREVOST Laurent 01:15:49 V1M 26 00:17:47 00:13:40 - 11,871 05:03
83 1219 LEULIET Laurent 01:15:52 V1M 27 00:17:50 00:13:43 OLYMPIQUE GRANDE SYNTHE 11,863 05:03
84 1124 DAUSQUES Wilfrid 01:15:56 V1M 28 00:17:54 00:13:47 BOURTHES RUNNING 11,853 05:04
85 796 D'ALMEIDA Jean 01:16:03 SEM 33 00:18:01 00:18:01 11,834 05:04
86 1194 BELKESSAM Frederic 01:16:17 V1M 29 00:18:15 00:14:08 LES TRAILEURS DU BEEF 11,798 05:05
87 1221 LEROY Cedric 01:16:19 SEM 34 00:18:17 00:18:17 OSA 11,793 05:05
88 1226 LEMAITRE Nicolas 01:16:30 V1M 30 00:18:28 00:14:21 PATRIOTE CROSS DE GUINES 11,765 05:06
89 1190 MAYEUR Baptiste 01:16:44 CAM 3 00:18:42 00:03:45 LES COUREURS DU LOUP BLANC - LABOURSE 11,729 05:07
90 1295 LEVEUGLE Caroline 01:16:50 V1F 2 00:18:48 00:01:59 TEAM TRAIL AUDOMAROIS 11,714 05:07
91 990 REGNAUT Antoine 01:17:03 SEM 35 00:19:01 00:19:01 - 11,681 05:08
92 1035 TROTIN Franck 01:17:11 V1M 31 00:19:09 00:15:02 - 11,661 05:09
93 1193 JACQUELET Antoine 01:17:15 SEM 36 00:19:13 00:19:13 LES SEMELLES FUMANTES - MONTCORNET 11,650 05:09
94 710 AGNERAY Sandrine 01:17:23 V1F 3 00:19:21 00:02:32 - 11,630 05:10
95 758 CLEMENT Fabien 01:17:24 SEM 37 00:19:22 00:19:22 - 11,628 05:10
96 1249 SOUDANS Sébastien 01:17:31 SEM 38 00:19:29 00:19:29 RC BLENDECQUES 11,610 05:10
97 821 EVRARD Clement 01:17:33 SEM 39 00:19:31 00:19:31 - 11,605 05:10
98 1315 MENAGER Arnaud 01:17:36 V1M 32 00:19:34 00:15:27 TTN 11,598 05:10
99 1294 DUBOIS Firmin 01:17:54 SEM 40 00:19:52 00:19:52 TEAM TRAIL AUDOMAROIS 11,553 05:12
100 910 LEDET Cedric 01:17:57 SEM 41 00:19:55 00:19:55 - 11,546 05:12
101 1322 GENGEMBRE David 01:18:04 V1M 33 00:20:02 00:15:55 USL J LEFFRINCKOUCKE 11,529 05:12
102 781 DEBREIL Thierry 01:18:15 V2M 12 00:20:13 00:17:28 - 11,502 05:13
103 721 BAY Frederic 01:18:15 V1M 34 00:20:13 00:16:06 - 11,502 05:13
104 1111 MASOUYÉ David 01:18:43 V1M 35 00:20:41 00:16:34 BBR?S 11,433 05:15
105 1123 DEMILLY Pierre 01:19:01 JUM 4 00:20:59 00:20:25 BOULOGNE ATHLéTIQUE CLUB 11,390 05:16
106 1112 BERTHIN Clément 01:19:09 ESM 4 00:21:07 00:10:52 BELLEFACE 11,371 05:17
107 1113 BOULET Quentin 01:19:17 ESM 5 00:21:15 00:11:00 BELLEFACE 11,352 05:17
108 1187 BECUWE David 01:19:23 V2M 13 00:21:21 00:18:36 LES COP1 D ABORD 11,337 05:18
109 918 LEMAIRE Cyril 01:19:25 SEM 42 00:21:23 00:21:23 - 11,333 05:18
110 1134 FUZELLIER Kevin 01:19:31 SEM 43 00:21:29 00:21:29 CALAIS TERRE D'OPALE TRAIL 11,318 05:18
111 1303 ABIDI Samyr 01:19:37 SEM 44 00:21:35 00:21:35 TETEGHEM ATHETISME 11,304 05:18
112 931 MAILLET Julien 01:19:42 SEM 45 00:21:40 00:21:40 - 11,292 05:19
113 1135 GAVOIS Martial 01:19:46 V3M 3 00:21:44 00:12:53 CALAIS TERRE D'OPALE TRAIL 11,283 05:19
114 951 MUSELET Sebastien 01:19:48 SEM 46 00:21:46 00:21:46 - 11,278 05:19
115 759 COGEZ Jeremy 01:19:52 V1M 36 00:21:50 00:17:43 - 11,269 05:19
116 1095 CONDETTE Frederic 01:19:57 V1M 37 00:21:55 00:17:48 AS MARCK 11,257 05:20
117 1250 SUZANNE Loïc 01:20:03 SEM 47 00:22:01 00:22:01 RC BLENDECQUES 11,243 05:20
118 1110 MARGUET Lucie 01:20:09 V1F 4 00:22:07 00:05:18 BBR?S 11,229 05:21
119 1247 ANDRÉ Quentin 01:20:23 ESM 6 00:22:21 00:12:06 QUENTIN ANDRé 11,196 05:22
120 1166 DEFEBVIN Bruno 01:20:24 V2M 14 00:22:22 00:19:37 ELAN FRUGEOIS 11,194 05:22
121 1012 SARAIVA Antoine 01:20:27 JUM 5 00:22:25 00:21:51 - 11,187 05:22
122 746 CAPPE Alexandre 01:20:50 SEM 48 00:22:48 00:22:48 - 11,134 05:23
123 707 AUZOU Jean-paul 01:20:57 V3M 4 00:22:55 00:14:04 LE PORTEL 11,118 05:24
124 779 DAUX Fabien 01:21:00 V1M 38 00:22:58 00:18:51 - 11,111 05:24
125 1115 THUILLIER Pierre 01:21:04 JUM 6 00:23:02 00:22:28 BELLEFACE 11,102 05:24
126 1218 CARPENTIER Jordhy 01:21:12 SEM 49 00:23:10 00:23:10 OGSA 11,084 05:25
127 1099 HIELLE Antoine 01:21:15 SEM 50 00:23:13 00:23:13 AS MARCK 11,077 05:25
128 968 PIERRU Julien 01:21:18 SEM 51 00:23:16 00:23:16 - 11,070 05:25
129 858 HENEMAN Alexandre 01:21:19 SEM 52 00:23:17 00:23:17 - 11,068 05:25
130 713 ANDRIEUX Laura 01:21:19 SEF 3 00:23:17 00:12:36 - 11,068 05:25
131 1229 BATILLIOT Dominique 01:21:31 V2F 1 00:23:29 00:00:00 PATRIOTE GUINES 11,041 05:26
132 827 FEUTRY Guillaume 01:21:49 SEM 53 00:23:47 00:23:47 - 11,000 05:27
133 934 MANIER Olivier 01:21:50 SEM 54 00:23:48 00:23:48 - 10,998 05:27
134 1137 BOULANGER Jean-philippe 01:22:01 V2M 15 00:23:59 00:21:14 CALAIS TERRE D'OPALE TRAIL 10,973 05:28
135 1162 PLATIAU Marie 01:22:04 SEF 4 00:24:02 00:13:21 DéPARTEMENT DU PAS-DE-CALAIS 10,967 05:28
136 850 GRESSIER Olivier 01:22:10 V2M 16 00:24:08 00:21:23 - 10,953 05:29
137 948 MICELI Julien 01:22:24 SEM 55 00:24:22 00:24:22 - 10,922 05:30
138 905 LECLERCQ Mickael 01:22:26 SEM 56 00:24:24 00:24:24 - 10,918 05:30
139 904 LECLERCQ Olivier 01:22:27 V1M 39 00:24:25 00:20:18 - 10,916 05:30
140 914 LEJEUNE Franck 01:22:34 V2M 17 00:24:32 00:21:47 - 10,900 05:30
141 753 CHARLEMAGNE Christophe 01:22:39 V1M 40 00:24:37 00:20:30 - 10,889 05:31
142 798 DEPARIS Maxime 01:22:45 V1M 41 00:24:43 00:20:36 - 10,876 05:31
143 791 DELAPLACE Bastien 01:22:48 SEM 57 00:24:46 00:24:46 - 10,870 05:31
144 957 OLESNITZKI Franck 01:22:52 V1M 42 00:24:50 00:20:43 - 10,861 05:31
145 940 MARLARD Alice 01:22:53 SEF 5 00:24:51 00:14:10 - 10,859 05:32
146 813 DUCHEMIN Jerome 01:22:55 V1M 43 00:24:53 00:20:46 - 10,854 05:32
147 1098 HARDY Fabien 01:22:59 V2M 18 00:24:57 00:22:12 AS MARCK 10,846 05:32
148 1213 BLOUIN Xavier 01:23:00 V1M 44 00:24:58 00:20:51 LYS CALAIS TRIATHLON 10,843 05:32
149 838 GOBERT Marie 01:23:06 SEF 6 00:25:04 00:14:23 - 10,830 05:32
150 785 DEGROOT Luc 01:23:13 ESM 7 00:25:11 00:14:56 - 10,815 05:33
151 1067 WILS Théo 01:23:14 JUM 7 00:25:12 00:24:38 - 10,813 05:33
152 994 ROBACHE Jérémie 01:23:17 SEM 58 00:25:15 00:25:15 - 10,806 05:33
153 792 DELATTRE Gregory 01:23:17 SEM 59 00:25:15 00:25:15 - 10,806 05:33
154 1090 VANDERBRUGGEN Christian 01:23:20 SEM 60 00:25:18 00:25:18 ANDRéSY ATHéLISME 10,800 05:33
155 1180 VAN DER BRUGGEN Myriam 01:23:20 V1F 5 00:25:18 00:08:29 GRAVELINES TRIATHLON 10,800 05:33
156 783 DECRIEM François 01:23:25 SEM 61 00:25:23 00:25:23 - 10,789 05:34
157 935 MANIEZ Sébastien 01:23:29 V1M 45 00:25:27 00:21:20 - 10,781 05:34
158 1087 DELAUTRE Arnaud 01:23:37 V1M 46 00:25:35 00:21:28 ACVA 10,763 05:34
159 729 BEYOU François 01:23:45 SEM 62 00:25:43 00:25:43 - 10,746 05:35
160 849 GRESSIER Xavier 01:23:47 SEM 63 00:25:45 00:25:45 - 10,742 05:35
161 1021 SOLAL Julie 01:23:51 SEF 7 00:25:49 00:15:08 - 10,733 05:35
162 715 ANSEL Serge 01:24:00 V2M 19 00:25:58 00:23:13 - 10,714 05:36
163 978 POUPAERT Gregory 01:24:01 V1M 47 00:25:59 00:21:52 - 10,712 05:36
164 1068 WOUSSEN Herve 01:24:10 V1M 48 00:26:08 00:22:01 - 10,693 05:37
165 307 DELATAIGNANT Arnaud 01:24:11 V1M 49 00:26:09 00:22:02 COLEMBERT 10,691 05:37
166 976 POULAIN Fabienne 01:24:13 V2F 2 00:26:11 00:02:42 - 10,687 05:37
167 1292 DEMARLE Julien 01:24:19 SEM 64 00:26:17 00:26:17 TEAM TRAIL AUDOMAROIS 10,674 05:37
168 786 DEKNUDT Jean-baptiste 01:24:25 SEM 65 00:26:23 00:26:23 - 10,661 05:38
169 846 GOUVIEZ Laurent 01:24:30 V2M 20 00:26:28 00:23:43 - 10,651 05:38
170 815 DUFOUR Mathieu 01:24:30 V1M 50 00:26:28 00:22:21 - 10,651 05:38
171 913 LEGUAY Marianick 01:25:02 V1F 6 00:27:00 00:10:11 - 10,584 05:40
172 1055 WAY Stephane 01:25:02 V1M 51 00:27:00 00:22:53 - 10,584 05:40
173 1220 DELEBARRE Michel 01:25:08 V3M 5 00:27:06 00:18:15 OMNISPORT AIROIS ATHLETISME 10,572 05:41
174 312 SERGENT Sophie 01:25:08 V1F 7 00:27:06 00:10:17 COLEMBERT 10,572 05:41
175 1291 LEBAS Eric 01:25:10 V2M 21 00:27:08 00:24:23 TEAM TRAIL 62 10,568 05:41
176 1045 VERMEIL Matthieu 01:25:11 SEM 66 00:27:09 00:27:09 - 10,565 05:41
177 1275 PERSYN Benoit 01:25:19 V1M 52 00:27:17 00:23:10 STEENWERCK EN SHORT 10,549 05:41
178 859 HÉNON Aurelien 01:25:28 SEM 67 00:27:26 00:27:26 - 10,530 05:42
179 911 LEDEZ Anne-sophie 01:25:30 V1F 8 00:27:28 00:10:39 - 10,526 05:42
180 920 LEROUX Johnny 01:25:54 SEM 68 00:27:52 00:27:52 - 10,477 05:44
181 1332 DELPIERRE Bertrand 01:26:00 V1M 53 00:27:58 00:23:51 10,465 05:44
182 803 DEVULDER Michael 01:26:03 V1M 54 00:28:01 00:23:54 - 10,459 05:44
183 1317 DIEU Stephanie 01:26:10 V1F 9 00:28:08 00:11:19 TTO 10,445 05:45
184 1056 WAY Stéphane 01:26:40 V1M 55 00:28:38 00:24:31 - 10,385 05:47
185 1043 VASSEUR Stephane 01:26:44 V1M 56 00:28:42 00:24:35 - 10,377 05:47
186 751 CATEZ Cedric 01:26:45 SEM 69 00:28:43 00:28:43 - 10,375 05:47
187 890 LAMBLIN Lucie 01:26:46 SEF 8 00:28:44 00:18:03 - 10,373 05:47
188 1260 DEHARTE Aurélien 01:26:47 SEM 70 00:28:45 00:28:45 SAPEURS POMPIERS ARDRES 10,371 05:47
189 788 DELAMARRE Benoît 01:26:47 V1M 57 00:28:45 00:24:38 - 10,371 05:47
190 1153 BAUW Angelique 01:26:53 V1F 10 00:28:51 00:12:02 COURIR CANTON CASSEL 10,359 05:48
191 1277 BILLIET Adrien 01:27:08 SEM 71 00:29:06 00:29:06 TCM62 10,329 05:49
192 1276 FLAHAUT Cyril 01:27:08 SEM 72 00:29:06 00:29:06 TCM 10,329 05:49
193 1040 VANDENBROUCKE Nicolas 01:27:14 SEM 73 00:29:12 00:29:12 - 10,317 05:49
194 556 BREYNE Christelle 01:27:19 V1F 11 00:29:17 00:12:28 OSA ATHLETISME AIRE 10,307 05:49
195 1259 DEBONO Morgan 01:27:24 SEM 74 00:29:22 00:29:22 SAPEURS POMPIERS ARDRES 10,297 05:50
196 1268 SCOTTE Aurélien 01:27:31 SEM 75 00:29:29 00:29:29 STADE LONGUENESSOIS 10,284 05:50
197 845 GOUSSE Patrice 01:27:50 V1M 58 00:29:48 00:25:41 - 10,247 05:51
198 912 LEGRAND Jose 01:27:54 V1M 59 00:29:52 00:25:45 - 10,239 05:52
199 991 RENAUX Benoit 01:27:55 V2M 22 00:29:53 00:27:08 - 10,237 05:52
200 764 COUEDEL Sebastien 01:27:55 V1M 60 00:29:53 00:25:46 - 10,237 05:52
201 877 JANKIEWICZ Stanislas 01:27:56 V2M 23 00:29:54 00:27:09 - 10,235 05:52
202 933 MANIE Jordan 01:28:04 ESM 8 00:30:02 00:19:47 - 10,220 05:52
203 901 LEBRIEZ Dominique 01:28:05 V1M 61 00:30:03 00:25:56 - 10,218 05:52
204 1061 WEKSTEEN Lucien 01:28:08 CAM 4 00:30:06 00:15:09 - 10,212 05:53
205 1060 WEKSTEEN Nicolas 01:28:08 V1M 62 00:30:06 00:25:59 - 10,212 05:53
206 1108 HIARD Alexia 01:28:12 SEF 9 00:30:10 00:19:29 ATSCAF DUNKERQUE 10,204 05:53
207 795 DELPLACE Nathalie 01:28:16 V1F 12 00:30:14 00:13:25 - 10,196 05:53
208 733 BOCQUET Germain 01:28:21 ESM 9 00:30:19 00:20:04 - 10,187 05:53
209 1177 MARIETTE Vincent 01:28:24 V1M 63 00:30:22 00:26:15 GRAVELINES TRIATHLON 10,181 05:54
210 1072 BERQUEZ Margot 01:28:28 CAF 1 00:30:26 00:00:00 AC CAPELLOIS 10,173 05:54
211 1030 TISSERAND Xavier 01:28:28 V2M 24 00:30:26 00:27:41 - 10,173 05:54
212 1314 MENAGER Cécile 01:28:34 V1F 13 00:30:32 00:13:43 TTN 10,162 05:54
213 809 DRUELLE Laurent 01:28:38 V2M 25 00:30:36 00:27:51 - 10,154 05:55
214 1158 LELEU David 01:28:40 V1M 64 00:30:38 00:26:31 COURRIR DANS LE LUMBROIS 10,150 05:55
215 936 MANTEL Alexandre 01:28:41 SEM 76 00:30:39 00:30:39 - 10,148 05:55
216 833 GAGNE Olivier 01:28:43 V1M 65 00:30:41 00:26:34 - 10,145 05:55
217 837 GIRAUD David 01:28:48 V1M 66 00:30:46 00:26:39 - 10,135 05:55
218 805 DOUBLET Olivier 01:28:50 V1M 67 00:30:48 00:26:41 - 10,131 05:55
219 1223 ROEGIS Sylvie 01:28:51 V3F 1 00:30:49 00:00:00 OXYGENE COQUELLES 10,129 05:55
220 1234 DEMILLY Rémi 01:28:51 SEM 77 00:30:49 00:30:49 PATRIOTE GUINES 10,129 05:55
221 1121 BLOUIN Stephane 01:28:52 V1M 68 00:30:50 00:26:43 BONNINGUES LES CALAIS ATHéTISME 10,128 05:55
222 1014 SAUER Clémentine 01:28:54 ESF 1 00:30:52 00:00:00 - 10,124 05:56
223 1143 LOGEZ Alexandre 01:28:56 SEM 78 00:30:54 00:30:54 CHARLY ET PAUL 10,120 05:56
224 311 PLAYE François 01:29:03 V2M 26 00:31:01 00:28:16 COLEMBERT 10,107 05:56
225 1333 POUPLARD Philippe 01:29:03 V1M 69 00:31:01 00:26:54 10,107 05:56
226 971 PLANCKE Nadege 01:29:10 SEF 10 00:31:08 00:20:27 - 10,093 05:57
227 1285 LECOMTE Celia 01:29:12 SEF 11 00:31:10 00:20:29 TEAM GRAVELINES TRAIL 10,090 05:57
228 308 DUCROCQUET Michel 01:29:15 V4M 1 00:31:13 00:00:00 COLEMBERT 10,084 05:57
229 310 MAES Etienne 01:29:18 V3M 6 00:31:16 00:22:25 COLEMBERT 10,078 05:57
230 1179 SCHEPPER Isabelle 01:29:20 V1F 14 00:31:18 00:14:29 GRAVELINES TRIATHLON 10,075 05:57
231 1176 DESCAMPS Sebastien 01:29:21 V1M 70 00:31:19 00:27:12 GRAVELINES TRIATHLON 10,073 05:57
232 1175 DESCAMPS Morgane 01:29:21 V1F 15 00:31:19 00:14:30 GRAVELINES TRIATHLON 10,073 05:57
233 1258 LE FLOHIC Benoit 01:29:30 V2M 27 00:31:28 00:28:43 S/L  CA COUDEKERQUE BRANCHE 10,056 05:58
234 313 SERGENT Maxime 01:29:39 V1M 71 00:31:37 00:27:30 COLEMBERT 10,039 05:59
235 309 LEBAS Dominique 01:29:39 V2M 28 00:31:37 00:28:52 COLEMBERT 10,039 05:59
236 842 GORGE Alexandre 01:29:43 V1M 72 00:31:41 00:27:34 - 10,032 05:59
237 1269 VENRIES Sandrine 01:29:45 V1F 16 00:31:43 00:14:54 STADE LONGUENESSOIS 10,028 05:59
238 1054 WATTEZ Jeremy 01:29:51 SEM 79 00:31:49 00:31:49 - 10,017 05:59
239 806 DOURNEL Francois 01:29:52 SEM 80 00:31:50 00:31:50 - 10,015 05:59
240 1309 HOUPIN Isabelle 01:29:58 V1F 17 00:31:56 00:15:07 TOUQUET TRAIL NATURE 10,004 06:00
241 1013 SARAIVA Jean-michel 01:30:04 V1M 73 00:32:02 00:27:55 - 9,993 06:00
242 946 MERSSEMAN Jean-françois 01:30:05 SEM 81 00:32:03 00:32:03 - 9,991 06:00
243 720 BASTIC Gérald 01:30:05 V1M 74 00:32:03 00:27:56 - 9,991 06:00
244 1046 VERRIELE Sylvain 01:30:06 SEM 82 00:32:04 00:32:04 - 9,989 06:00
245 1191 FASQUELLE Elisabeth 01:30:16 SEF 12 00:32:14 00:21:33 LES FOULEES DOULLENNAISES 9,970 06:01
246 1076 LEBON Rudy 01:30:20 V1M 75 00:32:18 00:28:11 AC CAPELLOIS 9,963 06:01
247 1202 HORAK Stephane 01:30:24 V2M 29 00:32:22 00:29:37 LIBERTY ALUMINIUM DUNKERQUE 9,956 06:02
248 832 FREZEL Nathalie 01:30:28 V1F 18 00:32:26 00:15:37 - 9,948 06:02
249 1338 DELPLACE Olivier 01:30:37 V1M 76 00:32:35 00:28:28 - 9,932 06:02
250 852 GUIOL Boris 01:30:39 SEM 83 00:32:37 00:32:37 - 9,928 06:03
251 967 PICHARD Franck 01:30:46 V1M 77 00:32:44 00:28:37 - 9,916 06:03
252 1028 THOLLIEZ Eric 01:30:52 V3M 7 00:32:50 00:23:59 - 9,905 06:03
253 1147 PRINCE Patrick 01:30:54 V1M 78 00:32:52 00:28:45 COACH SPORT SANTE 9,901 06:04
254 826 FAYT Hélène 01:30:54 V1F 19 00:32:52 00:16:03 - 9,901 06:04
255 765 COULOMBEL Sylvie 01:30:56 SEF 13 00:32:54 00:22:13 - 9,897 06:04
256 763 CORNIL Maxime 01:30:56 V1M 79 00:32:54 00:28:47 - 9,897 06:04
257 744 CAILLIER Stephane 01:31:03 SEM 84 00:33:01 00:33:01 - 9,885 06:04
258 1051 WATRÉ Angélique 01:31:04 V1F 20 00:33:02 00:16:13 - 9,883 06:04
259 738 BREVART Julien 01:31:09 SEM 85 00:33:07 00:33:07 - 9,874 06:05
260 1281 STIVAL Guillaume 01:31:10 SEM 86 00:33:08 00:33:08 TEAM ARD'RUN 9,872 06:05
261 1071 VASSEUR Gauthier 01:31:11 SEM 87 00:33:09 00:33:09 / 9,870 06:05
262 1148 AVISSE Sébastien 01:31:28 V1M 80 00:33:26 00:29:19 COLEMBERT 9,840 06:06
263 839 GOGUILLON Laurent 01:31:30 V1M 81 00:33:28 00:29:21 - 9,836 06:06
264 1186 LEUPE Cedric 01:31:31 V1M 82 00:33:29 00:29:22 LES CH'TIS COUREURS FLAMAND DE BAVINCHOVE 9,834 06:06
265 981 PREVOT Stephane 01:31:32 V2M 30 00:33:30 00:30:45 - 9,832 06:06
266 878 JOACHIM André 01:31:34 SEM 88 00:33:32 00:33:32 - 9,829 06:06
267 1140 SIX Grégory 01:31:44 V1M 83 00:33:42 00:29:35 CCCASSEL 9,811 06:07
268 1154 BAYARD David 01:31:51 V1M 84 00:33:49 00:29:42 COURIR DANS LE LUMBROIS 9,799 06:07
269 900 LEBON Jeremy 01:31:51 V1M 85 00:33:49 00:29:42 - 9,799 06:07
270 1212 LEFEBVRE Arnaud 01:31:54 V1M 86 00:33:52 00:29:45 LOUCH'ANGELES RUNNERS 9,793 06:08
271 932 MALBEC Kevin 01:31:55 SEM 89 00:33:53 00:33:53 - 9,791 06:08
272 848 GRENON Cyril 01:31:55 SEM 90 00:33:53 00:33:53 - 9,791 06:08
273 709 LEICHT Anne 01:31:56 SEF 14 00:33:54 00:23:13 9,790 06:08
274 953 NEMPON Julien 01:31:57 SEM 91 00:33:55 00:33:55 - 9,788 06:08
275 930 MAILLARD Thierry 01:31:59 V1M 87 00:33:57 00:29:50 - 9,784 06:08
276 941 MARLARD Thierry 01:32:01 V2M 31 00:33:59 00:31:14 - 9,781 06:08
277 1264 BOULOIS Sylvain 01:32:02 V2M 32 00:34:00 00:31:15 STADE LONGUENESSOIS 9,779 06:08
278 923 LOBEL Guillaume 01:32:08 V1M 88 00:34:06 00:29:59 - 9,768 06:09
279 956 NORMAND Nadège 01:32:21 V1F 21 00:34:19 00:17:30 - 9,746 06:09
280 921 LEVIS Jérôme 01:32:21 SEM 92 00:34:19 00:34:19 - 9,746 06:09
281 1297 LOEULLIER Betty 01:32:22 V1F 22 00:34:20 00:17:31 TEAM TRAIL AUDOMAROIS 9,744 06:09
282 928 MAEGHT Fabrice 01:32:28 V1M 89 00:34:26 00:30:19 - 9,733 06:10
283 760 COPIN Delphine 01:32:33 SEF 15 00:34:31 00:23:50 - 9,724 06:10
284 1210 COUSIN Camille 01:32:45 SEF 16 00:34:43 00:24:02 LONGUENESSE NATURE AVENTURE 9,704 06:11
285 899 LAVIE Barbara 01:32:45 SEF 17 00:34:43 00:24:02 - 9,704 06:11
286 964 PERARD Valentin 01:32:54 SEM 93 00:34:52 00:34:52 - 9,688 06:12
287 1289 BONNETAUD Gregory 01:32:54 V1M 90 00:34:52 00:30:45 TEAM TRAIL 62 9,688 06:12
288 1146 MOUQUET Laurence 01:32:59 V2F 3 00:34:57 00:11:28 CLLL ARMENTIèRES 9,679 06:12
289 1058 WAYMEL Olivia 01:33:00 ESF 2 00:34:58 00:04:06 - 9,677 06:12
290 1157 LEQUIEN Benjamin 01:33:03 SEM 94 00:35:01 00:35:01 COURIR DANS LE LUMBROIS 9,672 06:12
291 888 LAMARQUE Christophe 01:33:06 SEM 95 00:35:04 00:35:04 - 9,667 06:12
292 1048 VLAMYNCK Caroline 01:33:08 V1F 23 00:35:06 00:18:17 - 9,664 06:13
293 1274 RATTEZ Bertrand 01:33:08 V2M 33 00:35:06 00:32:21 STEENWERCK EN SHORT 9,664 06:13
294 945 MEIGNEUX Julie 01:33:08 SEF 18 00:35:06 00:24:25 - 9,664 06:13
295 1288 PAQUES Eric 01:33:17 V2M 34 00:35:15 00:32:30 TEAM TRAIL 9,648 06:13
296 829 FONTAINE Laurent 01:33:21 V2M 35 00:35:19 00:32:34 - 9,641 06:13
297 1298 BEWERSDORF Jessica 01:33:31 V1F 24 00:35:29 00:18:40 TEAM TRAIL GRAVELINES 9,624 06:14
298 907 LECOUSTRE Nicolas 01:33:34 SEM 96 00:35:32 00:35:32 - 9,619 06:14
299 1279 COCQUEREL Julie 01:33:35 V1F 25 00:35:33 00:18:44 TEAM ARD'RUN 9,617 06:14
300 1104 FOURNY Jérôme 01:33:37 V1M 91 00:35:35 00:31:28 ASUD 9,614 06:14
301 880 JOSSERAND Nicolas 01:33:42 V1M 92 00:35:40 00:31:33 - 9,605 06:15
302 820 ELLART Hélène 01:33:56 SEF 19 00:35:54 00:25:13 - 9,581 06:16
303 955 NOEL Sandrine 01:34:04 V1F 26 00:36:02 00:19:13 - 9,568 06:16
304 808 DRUELLE Caroline 01:34:07 V1F 27 00:36:05 00:19:16 - 9,563 06:16
305 989 REGNAUT Sebastien 01:34:13 V1M 93 00:36:11 00:32:04 - 9,552 06:17
306 702 DUBOIS Francois 01:34:14 SEM 97 00:36:12 00:36:12 - 9,551 06:17
307 1205 BRASSELET Bastien 01:34:19 SEM 98 00:36:17 00:36:17 Cette adresse e-mail est protégée contre les robots spammeurs. Vous devez activer le JavaScript pour la visualiser. 9,542 06:17
308 1272 OUGHALIME Brahim 01:34:21 SEM 99 00:36:19 00:36:19 STADE OLYMPIQUE DE CALAIS 9,539 06:17
309 1037 TYTECA Kevin 01:34:21 SEM 100 00:36:19 00:36:19 - 9,539 06:17
310 1011 SAISON Alexandre 01:34:34 SEM 101 00:36:32 00:36:32 - 9,517 06:18
311 819 DUPUY Charles 01:34:36 SEM 102 00:36:34 00:36:34 - 9,514 06:18
312 745 CAPELLE Michel 01:34:38 V3M 8 00:36:36 00:27:45 - 9,510 06:19
313 789 DELANNOY Kevin 01:34:42 SEM 103 00:36:40 00:36:40 - 9,504 06:19
314 985 QUILLET Ludovic 01:34:48 V1M 94 00:36:46 00:32:39 - 9,494 06:19
315 1286 RYBAK Betty 01:34:51 V1F 28 00:36:49 00:20:00 TEAM GRAVELINES TRAIL 9,489 06:19
316 823 FASQUEL Chloe 01:35:08 SEF 20 00:37:06 00:26:25 - 9,460 06:21
317 1304 BEAUCLAIR Séverine 01:35:14 V1F 29 00:37:12 00:20:23 TOUQUET TRAIL NATURE 9,450 06:21
318 1002 ROSTAN Christelle 01:35:18 V1F 30 00:37:16 00:20:27 - 9,444 06:21
319 916 LELEU Benoît 01:35:18 V1M 95 00:37:16 00:33:09 - 9,444 06:21
320 924 LONGUEMART Jerome 01:35:20 V1M 96 00:37:18 00:33:11 - 9,441 06:21
321 1253 WATTEL Marie-line 01:35:22 V1F 31 00:37:20 00:20:31 RUN FOR FUN 9,437 06:21
322 743 BUTEZ Sebastien 01:35:35 V1M 97 00:37:33 00:33:26 - 9,416 06:22
323 970 PILLIER Nicolas 01:35:40 SEM 104 00:37:38 00:37:38 - 9,408 06:23
324 807 DOUTRIAUX Emmanuel 01:35:42 SEM 105 00:37:40 00:37:40 - 9,404 06:23
325 1300 DECLERCQ Fred 01:35:43 V1M 98 00:37:41 00:33:34 TEAM TRAIL GRAVELINES 9,403 06:23
326 1215 LOUCHET Freddy 01:35:49 V1M 99 00:37:47 00:33:40 MARQUISE 9,393 06:23
327 1047 VERVOORT Marie-sophie 01:35:52 SEF 21 00:37:50 00:27:09 - 9,388 06:23
328 1100 LÉOTY Audrey 01:35:52 SEF 22 00:37:50 00:27:09 AS MARCK 9,388 06:23
329 1273 DECHERF Michael 01:35:53 SEM 106 00:37:51 00:37:51 STEENWERCK EN SHORT 9,386 06:24
330 830 FOURNIER François 01:35:54 V2M 36 00:37:52 00:35:07 - 9,385 06:24
331 1022 STIEVENART Pauline 01:36:03 SEF 23 00:38:01 00:27:20 - 9,370 06:24
332 1019 SION Vincent 01:36:04 SEM 107 00:38:02 00:38:02 - 9,368 06:24
333 1017 SERGENT Joel 01:36:04 V2M 37 00:38:02 00:35:17 - 9,368 06:24
334 996 ROBITAILLE Amandine 01:36:08 SEF 24 00:38:06 00:27:25 - 9,362 06:25
335 1077 WEILLAERT Blandine 01:36:13 V2F 4 00:38:11 00:14:42 AC CAPELLOIS 9,354 06:25
336 1057 WAYMEL Françoise 01:36:26 V2F 5 00:38:24 00:14:55 - 9,333 06:26
337 705 DETANT JULIE 01:36:28 SEF 25 00:38:26 00:27:45 ENTENTE MARITIME ATHL. 9,330 06:26
338 1165 LEGRAND Caroline 01:36:28 SEF 26 00:38:26 00:27:45 DESVRES ATHLéTISME 9,330 06:26
339 704 CARON Didier 01:36:28 V1M 100 00:38:26 00:34:19 DESVRES ATHLETISME 9,330 06:26
340 1278 DUCLOIE Gregory 01:36:31 V1M 101 00:38:29 00:34:22 TEAM ARD RUN 9,325 06:26
341 2223 LEVERT Cédric 01:36:37 SEM 108 00:38:35 00:38:35 - 9,315 06:26
342 716 AVRIL Tony 01:36:40 SEM 109 00:38:38 00:38:38 - 9,310 06:27
343 1063 WILLIER Renaud 01:36:41 SEM 110 00:38:39 00:38:39 - 9,309 06:27
344 870 HOUTEER MAGNI Justine 01:36:41 SEF 27 00:38:39 00:27:58 - 9,309 06:27
345 712 ANDRIEU Damien 01:36:43 V1M 102 00:38:41 00:34:34 - 9,306 06:27
346 706 LIBRE Sandrine 01:36:48 V2F 6 00:38:46 00:15:17 DESVRES ATHLETISME 9,298 06:27
347 1069 XAVIER Xavier 01:37:08 V1M 103 00:39:06 00:34:59 - 9,266 06:29
348 844 GOURNAY Therese-marie 01:37:19 V2F 7 00:39:17 00:15:48 - 9,248 06:29
349 1116 PIRRERA Lucas 01:37:25 ESM 10 00:39:23 00:29:08 BELLEFACE 9,239 06:30
350 1178 MESMACQUE Adeline 01:37:25 SEF 28 00:39:23 00:28:42 GRAVELINES TRIATHLON 9,239 06:30
351 947 MESMACQUE Claude 01:37:25 V3M 9 00:39:23 00:30:32 - 9,239 06:30
352 1107 ?Dossard #1107 01:37:26 SEM 111 00:39:24 00:39:24 9,237 06:30
353 1149 BEL Mathilde 01:37:28 ESF 3 00:39:26 00:08:34 COPAINS D ABORD 9,234 06:30
354 1038 VANBOSTRAETE David 01:37:31 V2M 38 00:39:29 00:36:44 - 9,229 06:30
355 1018 SIGNY Sebastien 01:37:31 V1M 104 00:39:29 00:35:22 - 9,229 06:30
356 882 KIEKEN Tony 01:37:34 V1M 105 00:39:32 00:35:25 - 9,224 06:30
357 814 DUCHEMIN Fanny 01:37:35 V1F 32 00:39:33 00:22:44 - 9,223 06:30
358 1301 GAGNEUX Vincent 01:37:37 SEM 112 00:39:35 00:39:35 TEAM TRAIL OPALE 9,220 06:30
359 929 MAGNE Pierre 01:37:43 V1M 106 00:39:41 00:35:34 - 9,210 06:31
360 1007 RYCKEMBUSCH Jeremy 01:37:46 SEM 113 00:39:44 00:39:44 - 9,206 06:31
361 1008 RYCKEMBUSCH Julien 01:37:47 SEM 114 00:39:45 00:39:45 - 9,204 06:31
362 1216 OLIVEIRA Jerome 01:37:47 SEM 115 00:39:45 00:39:45 NéANT 9,204 06:31
363 958 OLIVEIRA Fabien 01:37:48 SEM 116 00:39:46 00:39:46 - 9,202 06:31
364 725 BERNACKI Jean luc 01:37:48 V2M 39 00:39:46 00:37:01 - 9,202 06:31
365 973 PLOUVIER Perrine 01:37:49 SEF 29 00:39:47 00:29:06 - 9,201 06:31
366 1335 ?Dossard #1335 01:37:55 SEM 117 00:39:53 00:39:53 9,191 06:32
367 949 MIENNEE Jerome 01:37:58 V1M 107 00:39:56 00:35:49 - 9,187 06:32
368 717 BAETENS Franck 01:37:59 V2M 40 00:39:57 00:37:12 - 9,185 06:32
369 1034 TROTIN Anne 01:38:23 V1F 33 00:40:21 00:23:32 - 9,148 06:34
370 777 DARNOIS Maxime 01:38:26 SEM 118 00:40:24 00:40:24 - 9,143 06:34
371 881 JOUSSET Sandra 01:38:26 SEF 30 00:40:24 00:29:43 - 9,143 06:34
372 855 HAVART Laurie 01:38:33 SEF 31 00:40:31 00:29:50 - 9,132 06:34
373 739 BRIZZI Eric 01:38:35 V1M 108 00:40:33 00:36:26 - 9,129 06:34
374 588 BIRO Soren 01:38:36 V1M 109 00:40:34 00:36:27 PATRIOTE GUINES 9,128 06:34
375 873 HUMEZ Elodie 01:38:37 SEF 32 00:40:35 00:29:54 - 9,126 06:34
376 1126 GRÉMONT A marie 01:38:38 V2F 8 00:40:36 00:17:07 CAC 9,125 06:35
377 862 HERLEM Hélène 01:38:46 SEF 33 00:40:44 00:30:03 - 9,112 06:35
378 1142 BOSSART Charlotte 01:38:47 SEF 34 00:40:45 00:30:04 CHARLOTTE BOSSART 9,111 06:35
379 1203 MONTEUUIS Dominique 01:38:48 V3M 10 00:40:46 00:31:55 LIBERTY ALUMINIUM DUNKERQUE 9,109 06:35
380 1010 SABATIER Caroline 01:38:49 SEF 35 00:40:47 00:30:06 - 9,108 06:35
381 986 RACKELBOOM Marie-annick 01:38:49 SEF 36 00:40:47 00:30:06 - 9,108 06:35
382 1181 BOYER Severine 01:38:50 V1F 34 00:40:48 00:23:59 JCL 9,106 06:35
383 896 LASALLE Karine 01:38:56 V1F 35 00:40:54 00:24:05 - 9,097 06:36
384 1316 CAVERNE Stephane 01:38:58 V1M 110 00:40:56 00:36:49 TTO 9,094 06:36
385 1254 THOMAS Carine 01:39:04 V1F 36 00:41:02 00:24:13 RUNNING CLUB EPERLECQUES 9,085 06:36
386 762 CORDIER Guillaume 01:39:11 V1M 111 00:41:09 00:37:02 - 9,074 06:37
387 1004 ROZENTHAL Frédérique 01:39:19 V2F 9 00:41:17 00:17:48 - 9,062 06:37
388 1005 ROZENTHAL Titof 01:39:19 V2M 41 00:41:17 00:38:32 - 9,062 06:37
389 1086 DEPRAT Hélène 01:39:23 V1F 37 00:41:21 00:24:32 ACOUTREAU 9,056 06:38
390 1044 VERHECKEN Pascal 01:39:47 V1M 112 00:41:45 00:37:38 - 9,020 06:39
391 1231 BUY Jacques 01:39:50 V3M 11 00:41:48 00:32:57 PATRIOTE GUINES 9,015 06:39
392 1235 DENEZ Anne-sophie 01:39:50 V1F 38 00:41:48 00:24:59 PATRIOTE GUINES 9,015 06:39
393 1237 GEENS Melanie 01:39:51 V1F 39 00:41:49 00:25:00 PATRIOTE GUINES 9,014 06:39
394 1228 AUBERT Magali 01:39:51 V1F 40 00:41:49 00:25:00 PATRIOTE GUINES 9,014 06:39
395 1239 LECOUFFE Amandine 01:39:51 SEF 37 00:41:49 00:31:08 PATRIOTE GUINES 9,014 06:39
396 1242 MANIER Stephanie 01:39:51 SEF 38 00:41:49 00:31:08 PATRIOTE GUINES 9,014 06:39
397 887 LAMARE Benoit 01:39:52 SEM 119 00:41:50 00:41:50 - 9,012 06:39
398 1155 LELEU Christel 01:40:06 V2F 10 00:42:04 00:18:35 COURIR DANS LE LUMBROIS 8,991 06:40
399 817 DUHAMEL Luc 01:40:10 SEM 120 00:42:08 00:42:08 - 8,985 06:41
400 1262 PIDOU Emilie 01:40:12 SEF 39 00:42:10 00:31:29 SOC ATHLéTISME 8,982 06:41
401 944 MATON Jean-pierre 01:40:30 V2M 42 00:42:28 00:39:43 - 8,955 06:42
402 828 FONTAINE Mathilde 01:40:44 SEF 40 00:42:42 00:32:01 - 8,934 06:43
403 1201 BOSSART Camille 01:40:49 SEF 41 00:42:47 00:32:06 LIBERTY ALUMINIUM DUNKERQUE 8,927 06:43
404 1318 DUBOIS Mathieu 01:40:52 SEM 121 00:42:50 00:42:50 TTO 8,923 06:43
405 917 LELONG Sylvana 01:40:53 V1F 41 00:42:51 00:26:02 - 8,921 06:44
406 1320 MENDEL Claudine 01:41:02 V3F 2 00:43:00 00:12:11 US BIACHE ATHLETISME 8,908 06:44
407 892 LANNOYE Quentin 01:41:09 SEM 122 00:43:07 00:43:07 - 8,898 06:45
408 893 LANNOYE Bruno 01:41:10 V2M 43 00:43:08 00:40:23 - 8,896 06:45
409 902 LECAILLEZ Denis 01:41:25 SEM 123 00:43:23 00:43:23 - 8,874 06:46
410 1174 COCQUET Martine 01:41:36 V1F 42 00:43:34 00:26:45 GRAVELINES TRIATHLON 8,858 06:46
411 1075 KRAWCZYK Patricia 01:41:43 V3F 3 00:43:41 00:12:52 AC CAPELLOIS 8,848 06:47
412 810 DUBOIS Gaelle 01:42:02 V2F 11 00:44:00 00:20:31 - 8,821 06:48
413 1141 VANNOORENBERGHE Guy 01:42:08 V3M 12 00:44:06 00:35:15 CCCASSEL 8,812 06:49
414 1074 HOLUIGUE Virginie 01:42:08 V1F 43 00:44:06 00:27:17 AC CAPELLOIS 8,812 06:49
415 1078 LEBON Audrey 01:42:09 SEF 42 00:44:07 00:33:26 AC CAPELLOIS 8,811 06:49
416 1287 LEBEGUE Therese 01:42:15 V2F 12 00:44:13 00:20:44 TEAM TRAIL 8,802 06:49
417 983 QUENEHEN Katia 01:42:17 SEF 43 00:44:15 00:33:34 - 8,799 06:49
418 1150 WRONA Virginie 01:42:18 V1F 44 00:44:16 00:27:27 COPAINSDABORD 8,798 06:49
419 954 NIEUWLANDT Laure 01:42:19 SEF 44 00:44:17 00:33:36 - 8,796 06:49
420 834 GAURET Franck 01:42:26 V2M 44 00:44:24 00:41:39 - 8,786 06:50
421 1270 LEFEBVRE Lydia 01:42:28 V1F 45 00:44:26 00:27:37 STADE OLYMPIQUE CALAIS 8,783 06:50
422 866 HIART Charlotte 01:42:44 SEF 45 00:44:42 00:34:01 - 8,761 06:51
423 895 LAPOTRE Arthur 01:42:46 ESM 11 00:44:44 00:34:29 - 8,758 06:51
424 1160 MAQUIGNON Lara 01:42:48 SEF 46 00:44:46 00:34:05 DECATHLON 8,755 06:51
425 1159 CRESSON Corentin 01:42:49 ESM 12 00:44:47 00:34:32 DECATHLON 8,753 06:51
426 775 CUVILLIER Anne 01:42:53 V1F 46 00:44:51 00:28:02 - 8,748 06:52
427 831 FOURNIER Germain 01:42:57 SEM 124 00:44:55 00:44:55 - 8,742 06:52
428 853 HADYS Amélie 01:42:57 SEF 47 00:44:55 00:34:14 - 8,742 06:52
429 752 CAUX SEILLIER Sylvie 01:43:01 V2F 13 00:44:59 00:21:30 - 8,736 06:52
430 974 PODEVIN Laurie 01:43:10 SEF 48 00:45:08 00:34:27 - 8,724 06:53
431 755 CHOCHOY Sylvie 01:43:35 V2F 14 00:45:33 00:22:04 - 8,689 06:54
432 869 HONVAULT Alain 01:43:35 V2M 45 00:45:33 00:42:48 - 8,689 06:54
433 1092 OFFE Camille 01:43:41 SEF 49 00:45:39 00:34:58 ARTOIS ATHLETISME 8,680 06:55
434 1145 BOURDON Christelle 01:43:44 V1F 47 00:45:42 00:28:53 CLLL ARMENTIèRES 8,676 06:55
435 835 GHELEIN Celine 01:43:48 V1F 48 00:45:46 00:28:57 - 8,671 06:55
436 840 GOGUILLON Sandrine 01:43:53 V1F 49 00:45:51 00:29:02 - 8,664 06:56
437 915 LELEU Pierre 01:44:12 SEM 125 00:46:10 00:46:10 - 8,637 06:57
438 1120 CARTON Matthieu 01:44:14 SEM 126 00:46:12 00:46:12 BLARINGHEM TRAIL 8,634 06:57
439 1197 DELCAMBRE Dimitri 01:44:28 SEM 127 00:46:26 00:46:26 LES Z'AMIS COUREURS DE LAMBERSART 8,615 06:58
440 770 CRETON Ingrid 01:44:40 V1F 50 00:46:38 00:29:49 - 8,599 06:59
441 1200 BAYART Thierry 01:44:51 V2M 46 00:46:49 00:44:04 Cette adresse e-mail est protégée contre les robots spammeurs. Vous devez activer le JavaScript pour la visualiser. 8,584 06:59
442 1173 ROGEZ Samuel 01:44:53 SEM 128 00:46:51 00:46:51 FITNESSA 8,581 07:00
443 1280 DUHAMEL Cécilia 01:45:13 V1F 51 00:47:11 00:30:22 TEAM ARD'RUN 8,554 07:01
444 1283 CREPIN Audrey 01:45:13 SEF 50 00:47:11 00:36:30 TEAM ARD'RUN 8,554 07:01
445 1282 CATEZ Leane 01:45:13 V1F 52 00:47:11 00:30:22 TEAM ARD'RUN 8,554 07:01
446 925 LOTIN Alexis 01:45:26 SEM 129 00:47:24 00:47:24 - 8,536 07:02
447 1081 CLEMENT Raymond 01:45:32 V1M 113 00:47:30 00:43:23 AC CAPPELOIS 8,528 07:02
448 1031 TOMYN Cedrick 01:45:34 V1M 114 00:47:32 00:43:25 - 8,525 07:02
449 1016 SEIGRE Didier 01:45:51 V3M 13 00:47:49 00:38:58 - 8,503 07:03
450 1296 SAINT MACHIN Virginie 01:45:51 V1F 53 00:47:49 00:31:00 TEAM TRAIL AUDOMAROIS 8,503 07:03
451 1161 DESCAMPS Elise 01:45:53 V1F 54 00:47:51 00:31:02 DéPARTEMENT DU PAS-DE-CALAIS 8,500 07:04
452 1267 ROUSSEL Annick 01:45:53 V2F 15 00:47:51 00:24:22 STADE LONGUENESSOIS 8,500 07:04
453 1163 SAINT GEORGES Nadège 01:45:53 V1F 55 00:47:51 00:31:02 DéPARTEMENT DU PAS-DE-CALAIS 8,500 07:04
454 1263 WIART Sylvie 01:46:04 V2F 16 00:48:02 00:24:33 ST VENANT ATHLéTISME 8,485 07:04
455 306 AZZOUZ Izaac 01:46:14 SEM 130 00:48:12 00:48:12 COLEMBERT 8,472 07:05
456 736 BOURLINGUIEZ Cindy 01:46:14 SEF 51 00:48:12 00:37:31 - 8,472 07:05
457 757 CLABAUX Sophie 01:46:32 V2F 17 00:48:30 00:25:01 - 8,448 07:06
458 860 HENRI Ludovic 01:46:32 V1M 115 00:48:30 00:44:23 - 8,448 07:06
459 768 CRETON Patrick 01:46:35 SEM 131 00:48:33 00:48:33 - 8,444 07:06
460 906 LECLERCQ Sylvie 01:46:35 V1F 56 00:48:33 00:31:44 - 8,444 07:06
461 1144 GEERAERT Christophe 01:46:36 V1M 116 00:48:34 00:44:27 CHO BOAR TEAM 8,443 07:06
462 756 CHRISTIAENS Claire 01:46:42 SEF 52 00:48:40 00:37:59 - 8,435 07:07
463 761 CORDIER Julien 01:46:49 SEM 132 00:48:47 00:48:47 - 8,426 07:07
464 1128 DUCATEZ Maryvonne 01:46:53 V2F 18 00:48:51 00:25:22 CACB 8,420 07:08
465 778 DAUCHELLE Marine 01:46:56 SEF 53 00:48:54 00:38:13 - 8,416 07:08
466 865 HEUMEL Lionel 01:46:59 SEM 133 00:48:57 00:48:57 - 8,413 07:08
467 1293 DEMARLE Stephanie 01:47:01 SEF 54 00:48:59 00:38:18 TEAM TRAIL AUDOMAROIS 8,410 07:08
468 825 FAYT Jérôme 01:47:07 V1M 117 00:49:05 00:44:58 - 8,402 07:08
469 950 MILLATT Lesley 01:47:09 V2F 19 00:49:07 00:25:38 - 8,399 07:09
470 1204 MONTEUUIS Corinne 01:47:16 V2F 20 00:49:14 00:25:45 LIBERTY ALUMINIUM DUNKERQUE 8,390 07:09
471 784 DEFOSSEZ Clotilde 01:47:17 V1F 57 00:49:15 00:32:26 - 8,389 07:09
472 868 HOLLAND Maxence 01:47:17 ESM 13 00:49:15 00:39:00 - 8,389 07:09
473 1169 TRUPIN Noella 01:47:20 SEF 55 00:49:18 00:38:37 EMA 62 MARQUISE 8,385 07:09
474 995 ROBERT Sabine 01:47:34 V1F 58 00:49:32 00:32:43 - 8,367 07:10
475 952 MUSUMECI Bruno 01:47:36 V3M 14 00:49:34 00:40:43 - 8,364 07:10
476 1129 LEJEUNE Sandrine 01:47:39 V2F 21 00:49:37 00:26:08 CACB 8,360 07:11
477 1168 FOURNIER Amélie 01:47:41 SEF 56 00:49:39 00:38:58 EMA 62 8,358 07:11
478 1085 GOURNAY Audrey 01:47:42 V1F 59 00:49:40 00:32:51 ACO 8,357 07:11
479 1041 VANDERSTRAELE Jérome 01:47:58 V1M 118 00:49:56 00:45:49 - 8,336 07:12
480 908 LECOUSTRE Carole 01:48:01 V1F 60 00:49:59 00:33:10 - 8,332 07:12
481 1042 VANLIERDE Edouard 01:48:12 SEM 134 00:50:10 00:50:10 - 8,318 07:13
482 1000 ROMAND Anne 01:48:12 SEF 57 00:50:10 00:39:29 - 8,318 07:13
483 1001 RETAILLEAU VALENTIN 01:48:12 SEM 135 00:50:10 00:50:10 - 8,318 07:13
484 824 FASQUELLE Damien 01:48:15 V1M 119 00:50:13 00:46:06 - 8,314 07:13
485 1062 WHEATLEY Valériane 01:48:24 SEF 58 00:50:22 00:39:41 - 8,303 07:14
486 960 OUIN Olivier 01:48:44 V2M 47 00:50:42 00:47:57 - 8,277 07:15
487 883 KOMASA Alex 01:48:45 SEM 136 00:50:43 00:50:43 - 8,276 07:15
488 961 OUIN Marine 01:48:45 SEF 59 00:50:43 00:40:02 - 8,276 07:15
489 884 KOMASA Frederic 01:48:46 V2M 48 00:50:44 00:47:59 - 8,275 07:15
490 1009 RYCKEMBUSCH Sabrina 01:48:46 SEF 60 00:50:44 00:40:03 - 8,275 07:15
491 801 DESAEGHER Mélanie 01:48:50 SEF 61 00:50:48 00:40:07 - 8,270 07:15
492 1050 WAMPOUILLE Ludovic 01:48:51 V1M 120 00:50:49 00:46:42 - 8,268 07:15
493 1049 WAMPOUILLE Melanie 01:48:52 SEF 62 00:50:50 00:40:09 - 8,267 07:15
494 711 ANANIE Aline 01:49:03 SEF 63 00:51:01 00:40:20 - 8,253 07:16
495 903 LECLERC Mathieu 01:49:07 SEM 137 00:51:05 00:51:05 - 8,248 07:16
496 885 KWICZOR Delphine 01:49:07 SEF 64 00:51:05 00:40:24 - 8,248 07:16
497 987 RAMECOURT Gregory 01:49:07 V1M 121 00:51:05 00:46:58 - 8,248 07:16
498 1073 DOGIMONT Florent 01:49:11 SEM 138 00:51:09 00:51:09 AC CAPELLOIS 8,243 07:17
499 1189 FIEUS Freddy 01:49:13 V1M 122 00:51:11 00:47:04 LES COUREURS DU LOUP BLANC 8,241 07:17
500 889 LAMBERT Florine 01:49:15 SEF 65 00:51:13 00:40:32 - 8,238 07:17
501 1217 DEWEVRE Emmanuel 01:49:23 V1M 123 00:51:21 00:47:14 OGS HALTéROPHILIE 8,228 07:18
502 771 CROQUELOIS Celine 01:49:30 V1F 61 00:51:28 00:34:39 - 8,219 07:18
503 734 BOGAERT Arnaud 01:49:40 V1M 124 00:51:38 00:47:31 - 8,207 07:19
504 1032 TRONET Estelle 01:49:42 SEF 66 00:51:40 00:40:59 - 8,204 07:19
505 1033 TRONET Sébastien 01:49:43 SEM 139 00:51:41 00:51:41 - 8,203 07:19
506 969 PIETTE Joel 01:50:17 V2M 49 00:52:15 00:49:30 - 8,161 07:21
507 1334 POUPLARD Stephanie 01:50:24 V1F 62 00:52:22 00:35:33 8,152 07:22
508 1182 ANSEL Pascaline 01:50:26 V1F 63 00:52:24 00:35:35 JOG GAZELEC NPDC 8,150 07:22
509 727 BERNARD Camille 01:50:31 SEF 67 00:52:29 00:41:48 - 8,144 07:22
510 909 LECOUSTRE Laura 01:50:31 SEF 68 00:52:29 00:41:48 - 8,144 07:22
511 1138 BONNETAUD Cindy 01:50:39 V1F 64 00:52:37 00:35:48 CAP 8,134 07:23
512 871 HUET Sabrina 01:50:39 SEF 69 00:52:37 00:41:56 - 8,134 07:23
513 767 CREPIEUX Gregory 01:50:41 V2M 50 00:52:39 00:49:54 - 8,131 07:23
514 959 ORAVEC Nicolas 01:50:41 SEM 140 00:52:39 00:52:39 - 8,131 07:23
515 939 MARGIOVANNI Ophelie 01:50:45 SEF 70 00:52:43 00:42:02 - 8,126 07:23
516 1290 BROUILLARD Pamela 01:50:58 SEF 71 00:52:56 00:42:15 TEAM TRAIL 62 8,111 07:24
517 982 PROTIN Emilie 01:51:04 SEF 72 00:53:02 00:42:21 - 8,103 07:24
518 1151 PISANI Catherine 01:51:07 V2F 22 00:53:05 00:29:36 COURIR A     GRAVELINES 8,100 07:24
519 728 BEWERSDORF Magdalena 01:51:07 SEF 73 00:53:05 00:42:24 - 8,100 07:24
520 1152 BARRE Beatrice 01:51:07 V2F 23 00:53:05 00:29:36 COURIR A GRAVELINES 8,100 07:24
521 1064 WILS Agathe 01:51:23 SEF 74 00:53:21 00:42:40 - 8,080 07:26
522 1096 COURTIN Laurie 01:51:28 SEF 75 00:53:26 00:42:45 AS MARCK 8,074 07:26
523 1103 VRAUNAT Laura 01:51:28 SEF 76 00:53:26 00:42:45 AS MARCK ATHLETISME 8,074 07:26
524 1256 FLANQUART Karine 01:52:23 V1F 65 00:54:21 00:37:32 RUNNING CLUB NOYELLES GODAULT 8,008 07:30
525 1195 CHIROUTTE Stephanie 01:52:36 V1F 66 00:54:34 00:37:45 LES TYRANNOSAURES 7,993 07:30
526 872 HULLEBROUCK Sylvain 01:52:43 V1M 125 00:54:41 00:50:34 - 7,985 07:31
527 1127 DECOSTER Sylvie 01:52:43 V1F 67 00:54:41 00:37:52 CACB 7,985 07:31
528 1052 WATTECAMPS Stephanie 01:52:47 V1F 68 00:54:45 00:37:56 - 7,980 07:31
529 742 BUTEZ Lucie 01:53:04 SEF 77 00:55:02 00:44:21 - 7,960 07:32
530 703 VALEMBOIS Adrien 01:53:16 SEM 141 00:55:14 00:55:14 - 7,946 07:33
531 1299 BOUIN Stephanie 01:53:27 V1F 69 00:55:25 00:38:36 TEAM TRAIL GRAVELINES 7,933 07:34
532 972 PLANQUE Geoffrey 01:53:35 SEM 142 00:55:33 00:55:33 - 7,924 07:34
533 856 HEDGE Marine 01:53:35 SEF 78 00:55:33 00:44:52 - 7,924 07:34
534 857 HEDGE Philippe 01:53:36 V2M 51 00:55:34 00:52:49 - 7,923 07:34
535 836 GILLET Julien 01:53:38 SEM 143 00:55:36 00:55:36 - 7,920 07:35
536 1232 CARBONNIER Sebastien 01:53:38 V1M 126 00:55:36 00:51:29 PATRIOTE GUINES 7,920 07:35
537 1238 JOSSIEN Julies 01:53:49 SEF 79 00:55:47 00:45:06 PATRIOTE GUINES 7,907 07:35
538 750 CASTELLIER Céline 01:53:49 SEF 80 00:55:47 00:45:06 - 7,907 07:35
539 1240 LEFRANC Stephane 01:54:05 V1M 127 00:56:03 00:51:56 PATRIOTE GUINES 7,889 07:36
540 1015 SCHLAGER Stéphanie 01:54:15 SEF 81 00:56:13 00:45:32 - 7,877 07:37
541 1324 DEVYS Pascal 01:54:21 V2M 52 00:56:19 00:53:34 USL JOGGING 7,871 07:37
542 1323 CASSIN Marie line 01:54:21 V2F 24 00:56:19 00:32:50 USL JOGGING 7,871 07:37
543 1130 ROZENTHAL Manuella 01:54:39 V2F 25 00:56:37 00:33:08 CACB 7,850 07:39
544 793 DELMEULLE Cecile 01:55:02 V1F 70 00:57:00 00:40:11 - 7,824 07:40
545 794 DELMEULLE Frederic 01:55:02 V1M 128 00:57:00 00:52:53 - 7,824 07:40
546 1106 VAN LOOCKE Vincent 01:55:56 V1M 129 00:57:54 00:53:47 ASUD JOGGING 7,763 07:44
547 1340 VAN LOOCKE Frederique 01:55:56 V1F 71 00:57:54 00:41:05 ASUD JOGGING 7,763 07:44
548 1170 CARY Isabelle 01:55:56 V1F 72 00:57:54 00:41:05 ESQUELRUN 7,763 07:44
549 875 HUYGHE Stéphanie 01:56:08 V1F 73 00:58:06 00:41:17 - 7,750 07:45
550 714 ANNEBICQUE Mathilde 01:56:59 SEF 82 00:58:57 00:48:16 - 7,693 07:48
551 1326 SAUVAGE Virginie 01:57:00 SEF 83 00:58:58 00:48:17 VIRGINIE F 7,692 07:48
552 1251 CARON Justine 01:57:39 SEF 84 00:59:37 00:48:56 RONCHIN ATHLETIC CLUB (RAC) 7,650 07:51
553 966 PETITPREZ Veronique 01:57:47 V1F 74 00:59:45 00:42:56 - 7,641 07:51
554 618 JANNIN Valerie 01:57:47 V1F 75 00:59:45 00:42:56 USLJOGGING 7,641 07:51
555 1171 VERHILLE Sandra 01:57:48 V1F 76 00:59:46 00:42:57 ESQUELRUN 7,640 07:51
556 790 DELANNOY Karine 01:58:04 SEF 85 01:00:02 00:49:21 - 7,623 07:52
557 1188 FIEUS Florence 01:58:23 V1F 77 01:00:21 00:43:32 LES COUREURS DU LOUP BLANC 7,602 07:54
558 1312 GARS Yves 02:00:08 V3M 15 01:02:06 00:53:15 TRIATHLON CLUB HAZEBROUCK 7,492 08:01
559 1020 SMAEGHE Angelique 02:00:26 V1F 78 01:02:24 00:45:35 - 7,473 08:02
560 894 LANOY Mathilde 02:00:26 V1F 79 01:02:24 00:45:35 - 7,473 08:02
561 799 DEPATY Anne 02:00:39 SEF 86 01:02:37 00:51:56 - 7,460 08:03
562 1026 TELLIER Dominique 02:01:21 V2F 26 01:03:19 00:39:50 - 7,417 08:05
563 754 CHEVALIER Corinne 02:02:01 V1F 80 01:03:59 00:47:10 - 7,376 08:08
564 1039 VANDAMME Camille 02:02:06 SEF 87 01:04:04 00:53:23 - 7,371 08:08
565 1206 DELANGUE Stéphanie 02:03:28 SEF 88 01:05:26 00:54:45 LILLE TRIATHLON 7,289 08:14
566 726 BERNACKI Clémence 02:04:25 ESF 4 01:06:23 00:35:31 - 7,234 08:18
567 927 LYDIE Elise 02:04:54 SEF 89 01:06:52 00:56:11 - 7,206 08:20
568 1284 CARREE Sebastien 02:05:25 V1M 130 01:07:23 01:03:16 TEAM CCC 7,176 08:22
569 724 BERNACKI Lydie 02:05:32 V2F 27 01:07:30 00:44:01 - 7,169 08:22
570 1257 PRINCE Nathalie 02:06:51 V1F 81 01:08:49 00:52:00 RUNNING CLUB NOYELLES GODAULT 7,095 08:27
571 975 POTEAU Karine 02:07:11 V1F 82 01:09:09 00:52:20 - 7,076 08:29
572 1059 WEBER Arnaud 02:07:23 V1M 131 01:09:21 01:05:14 - 7,065 08:30
573 1198 DEFOORT Pascal 02:07:23 V2M 53 01:09:21 01:06:36 LES ZAMIS POUR LA VIE 7,065 08:30
574 1328 CARETTE Nicolas 02:07:23 V1M 132 01:09:21 01:05:14 ZAMIS POUR LA VIE 7,065 08:30
575 723 BEHAEGEL Yannick 02:07:23 V1M 133 01:09:21 01:05:14 - 7,065 08:30
576 747 CARETTE Helene 02:07:23 V1F 83 01:09:21 00:52:32 - 7,065 08:30
577 1199 VERIER Sophie 02:07:23 V1F 84 01:09:21 00:52:32 LES ZAMIS POUR LA VIE 7,065 08:30
578 1091 WEBER Marylène 02:07:23 V1F 85 01:09:21 00:52:32 ARNAUD WEBER 7,065 08:30
579 864 HERTAULT Lea 02:11:06 JUF 1 01:13:04 00:00:00 - 6,865 08:44
580 1065 WILS Camille 02:17:20 SEF 90 01:19:18 01:08:37 - 6,553 09:09
581 1066 WILS Laure 02:17:20 ESF 5 01:19:18 00:48:26 - 6,553 09:09
582 1139 LASSALLE Yannick 02:19:55 V1M 134 01:21:53 01:17:46 CAP 6,432 09:20
583 1025 TARKA Nathalie 02:26:24 V2F 28 01:28:22 01:04:53 - 6,148 09:46
584 1183 NOVASIK Luc 02:26:24 V2M 54 01:28:22 01:25:37 JOGGING CLUB LAPUGNOY 6,148 09:46